createdAt,value
2023-03-30T00:01:12.660Z,15.88
2023-03-30T00:09:23.040Z,14.07
2023-03-30T00:17:28.549Z,14.30
2023-03-30T00:25:36.740Z,14.02
2023-03-30T00:33:46.941Z,15.07
2023-03-30T00:41:56.181Z,15.07
2023-03-30T00:50:02.037Z,10.93
2023-03-30T00:58:12.795Z,9.25
2023-03-30T01:06:22.146Z,9.95
2023-03-30T01:14:30.557Z,9.07
2023-03-30T01:23:13.748Z,8.73
2023-03-30T01:31:44.277Z,8.98
2023-03-30T01:39:59.354Z,10.25
2023-03-30T01:48:11.389Z,9.48
2023-03-30T01:56:27.497Z,8.07
2023-03-30T02:04:39.066Z,7.13
2023-03-30T02:12:48.135Z,7.30
2023-03-30T02:20:53.655Z,7.93
2023-03-30T02:29:02.101Z,8.90
2023-03-30T02:37:38.325Z,8.88
2023-03-30T02:45:55.787Z,9.15
2023-03-30T02:54:09.731Z,9.80
2023-03-30T03:02:41.942Z,12.13
2023-03-30T03:10:59.584Z,10.18
2023-03-30T03:19:10.232Z,9.23
2023-03-30T03:27:17.449Z,8.10
2023-03-30T03:35:54.405Z,7.88
2023-03-30T03:44:01.539Z,8.98
2023-03-30T03:52:11.401Z,8.02
2023-03-30T04:00:29.606Z,7.90
2023-03-30T04:08:38.352Z,6.95
2023-03-30T04:16:58.228Z,8.23
2023-03-30T04:25:32.642Z,7.82
2023-03-30T04:34:05.122Z,8.57
2023-03-30T04:42:21.187Z,9.00
2023-03-30T04:50:51.060Z,8.52
2023-03-30T04:59:17.944Z,7.28
2023-03-30T05:07:46.794Z,7.72
2023-03-30T05:16:33.113Z,6.93
2023-03-30T05:24:53.919Z,7.20
2023-03-30T05:33:33.835Z,9.35
2023-03-30T05:41:57.907Z,7.60
2023-03-30T05:50:24.984Z,8.30
2023-03-30T05:58:40.696Z,8.20
2023-03-30T06:06:56.193Z,6.87
2023-03-30T06:15:03.364Z,7.65
2023-03-30T06:23:26.647Z,7.68
2023-03-30T06:31:35.991Z,8.18
2023-03-30T06:40:14.957Z,8.25
2023-03-30T06:48:25.795Z,7.35
2023-03-30T06:56:54.947Z,7.53
2023-03-30T07:05:01.895Z,6.32
2023-03-30T07:13:38.223Z,6.03
2023-03-30T07:21:43.886Z,5.53
2023-03-30T07:29:55.848Z,5.57
2023-03-30T07:38:03.905Z,3.13
2023-03-30T07:46:16.521Z,4.22
2023-03-30T07:54:25.814Z,3.80
2023-03-30T08:03:01.317Z,2.80
2023-03-30T08:11:11.434Z,2.60
2023-03-30T08:19:22.369Z,2.88
2023-03-30T08:27:28.287Z,1.95
2023-03-30T08:35:36.537Z,1.23
2023-03-30T08:43:50.279Z,1.70
2023-03-30T09:00:18.186Z,1.65
2023-03-30T09:08:29.542Z,1.77
2023-03-30T09:16:41.865Z,2.20
2023-03-30T09:24:51.765Z,2.05
2023-03-30T09:33:03.751Z,2.25
2023-03-30T09:41:23.633Z,2.35
2023-03-30T09:49:33.810Z,2.28
2023-03-30T09:57:42.451Z,1.60
2023-03-30T10:05:48.196Z,2.03
2023-03-30T10:13:56.627Z,1.60
2023-03-30T10:22:04.623Z,1.70
2023-03-30T10:30:22.270Z,1.50
2023-03-30T10:38:28.307Z,1.80
2023-03-30T10:46:36.760Z,1.80
2023-03-30T10:54:47.162Z,1.58
2023-03-30T11:03:02.752Z,2.13
2023-03-30T11:11:10.648Z,1.90
2023-03-30T11:19:25.078Z,1.92
2023-03-30T11:27:34.617Z,1.77
2023-03-30T11:35:48.754Z,1.50
2023-03-30T11:43:56.324Z,1.40
2023-03-30T11:52:16.924Z,1.50
2023-03-30T12:00:34.976Z,1.63
2023-03-30T12:08:57.616Z,1.80
2023-03-30T12:17:08.516Z,1.48
2023-03-30T12:25:27.918Z,2.65
2023-03-30T12:33:38.684Z,2.47
2023-03-30T12:41:52.346Z,2.30
2023-03-30T12:50:21.595Z,2.08
2023-03-30T12:58:38.459Z,4.35
2023-03-30T13:06:54.102Z,1.80
2023-03-30T13:15:03.753Z,2.17
2023-03-30T13:23:34.310Z,2.20
2023-03-30T13:32:07.815Z,2.20
2023-03-30T13:49:10.074Z,2.40
2023-03-30T13:57:24.075Z,2.25
2023-03-30T14:05:34.934Z,3.47
2023-03-30T14:13:43.151Z,2.20
2023-03-30T14:21:50.476Z,2.10
2023-03-30T14:29:59.001Z,2.38
2023-03-30T14:38:16.308Z,2.38
2023-03-30T14:46:26.947Z,3.33
2023-03-30T14:54:33.706Z,3.20
2023-03-30T15:02:43.088Z,3.00
2023-03-30T15:10:53.298Z,3.38
2023-03-30T15:19:05.991Z,3.08
2023-03-30T15:27:12.610Z,3.50
2023-03-30T15:35:26.237Z,3.35
2023-03-30T15:43:33.821Z,2.85
2023-03-30T15:51:45.506Z,3.70
2023-03-30T15:59:54.139Z,3.22
2023-03-30T16:08:02.516Z,2.95
2023-03-30T16:16:08.536Z,3.08
2023-03-30T16:24:17.969Z,8.50
2023-03-30T16:32:28.115Z,10.93
2023-03-30T16:40:43.102Z,8.90
2023-03-30T17:14:34.601Z,5.60
2023-03-30T17:22:40.328Z,4.25
2023-03-30T17:30:49.315Z,4.55
2023-03-30T17:38:59.840Z,6.90
2023-03-30T17:47:08.094Z,7.32
2023-03-30T17:55:13.671Z,6.75
2023-03-30T18:03:23.580Z,7.05
2023-03-30T18:11:29.198Z,8.57
2023-03-30T18:19:37.301Z,10.35
2023-03-30T18:27:43.008Z,7.68
2023-03-30T18:35:52.894Z,8.40
2023-03-30T18:44:03.057Z,8.23
2023-03-30T18:52:11.312Z,9.15
2023-03-30T19:00:22.561Z,9.57
2023-03-30T19:08:31.129Z,11.18
2023-03-30T19:16:36.643Z,12.27
2023-03-30T19:24:44.735Z,12.38
2023-03-30T19:32:51.345Z,18.27
2023-03-30T19:41:03.439Z,18.95
2023-03-30T19:49:10.792Z,23.90
2023-03-30T19:57:19.270Z,17.35
2023-03-30T20:05:27.462Z,17.20
2023-03-30T20:13:37.115Z,12.13
2023-03-30T20:21:42.583Z,12.00
2023-03-30T20:29:51.091Z,16.30
2023-03-30T20:37:56.701Z,14.77
2023-03-30T20:46:09.916Z,15.77
2023-03-30T20:54:15.968Z,15.93
2023-03-30T21:02:24.060Z,17.10
2023-03-30T21:10:29.549Z,15.88
2023-03-30T21:18:38.605Z,17.42
2023-03-30T21:26:44.071Z,21.17
2023-03-30T21:34:52.116Z,18.42
2023-03-30T21:42:57.537Z,15.55
2023-03-30T21:51:08.052Z,14.70
2023-03-30T21:59:13.736Z,14.77
2023-03-30T22:07:22.080Z,14.77
2023-03-30T22:15:27.538Z,14.10
2023-03-30T22:23:35.735Z,14.77
2023-03-30T22:31:41.478Z,14.57
2023-03-30T22:39:49.689Z,15.07
2023-03-30T22:47:55.597Z,14.30
2023-03-30T22:56:04.581Z,12.90
2023-03-30T23:04:10.250Z,9.82
2023-03-30T23:12:18.247Z,11.10
2023-03-30T23:20:23.691Z,10.25
2023-03-30T23:28:32.473Z,11.27
2023-03-30T23:36:38.053Z,11.93
2023-03-30T23:44:46.220Z,13.00
2023-03-30T23:52:51.821Z,13.60
